createdAt,value
2022-08-04T00:10:36.544Z,9.00
2022-08-04T00:25:41.775Z,6.80
2022-08-04T00:41:12.692Z,8.70
2022-08-04T00:56:43.797Z,10.30
2022-08-04T01:12:01.024Z,8.90
2022-08-04T01:27:13.995Z,8.70
2022-08-04T01:42:31.469Z,8.20
2022-08-04T01:57:39.469Z,6.80
2022-08-04T02:12:55.843Z,8.60
2022-08-04T02:28:56.300Z,9.10
2022-08-04T02:44:03.900Z,11.00
2022-08-04T02:59:12.041Z,11.40
2022-08-04T03:14:27.148Z,10.60
2022-08-04T03:29:48.297Z,10.70
2022-08-04T03:45:23.242Z,10.20
2022-08-04T04:01:15.096Z,9.30
2022-08-04T04:16:42.927Z,9.70
2022-08-04T04:32:11.796Z,8.30
2022-08-04T04:48:07.685Z,8.50
2022-08-04T05:03:09.211Z,8.50
2022-08-04T05:18:19.835Z,7.70
2022-08-04T05:33:29.174Z,8.10
2022-08-04T05:48:33.950Z,8.50
2022-08-04T06:03:38.883Z,10.40
2022-08-04T06:20:02.189Z,8.60
2022-08-04T06:34:11.654Z,8.10
2022-08-04T06:49:16.181Z,9.50
2022-08-04T07:04:20.036Z,10.30
2022-08-04T07:19:23.318Z,8.30
2022-08-04T07:34:27.615Z,5.80
2022-08-04T07:49:55.001Z,6.10
2022-08-04T08:04:59.810Z,5.40
2022-08-04T08:20:03.461Z,5.20
2022-08-04T08:35:07.124Z,4.80
2022-08-04T08:50:31.403Z,5.00
2022-08-04T09:06:05.693Z,6.10
2022-08-04T09:21:57.006Z,4.70
2022-08-04T09:37:25.459Z,5.10
2022-08-04T09:52:43.555Z,5.40
2022-08-04T10:08:23.469Z,4.70
2022-08-04T10:23:56.613Z,4.80
2022-08-04T10:39:42.323Z,5.10
2022-08-04T10:54:49.127Z,5.10
2022-08-04T11:09:52.976Z,4.40
2022-08-04T11:25:09.896Z,4.50
2022-08-04T11:40:24.459Z,4.30
2022-08-04T11:55:31.124Z,4.60
2022-08-04T12:11:12.595Z,4.80
2022-08-04T12:26:23.617Z,4.10
2022-08-04T12:41:35.432Z,4.90
2022-08-04T12:56:41.182Z,5.20
2022-08-04T13:11:50.186Z,4.80
2022-08-04T13:27:03.881Z,4.40
2022-08-04T13:42:11.062Z,4.70
2022-08-04T13:57:30.535Z,4.90
2022-08-04T14:12:38.388Z,4.80
2022-08-04T14:27:51.245Z,4.40
2022-08-04T14:42:56.589Z,6.00
2022-08-04T14:58:36.578Z,6.80
2022-08-04T15:13:23.960Z,4.30
2022-08-04T15:28:29.985Z,5.30
2022-08-04T15:44:01.286Z,4.70
2022-08-04T15:59:04.393Z,5.20
2022-08-04T16:14:11.492Z,4.70
2022-08-04T16:29:24.355Z,4.40
2022-08-04T16:44:53.055Z,4.80
2022-08-04T16:59:57.008Z,5.10
2022-08-04T17:15:02.640Z,4.40
2022-08-04T17:30:26.530Z,4.50
2022-08-04T17:45:51.264Z,6.60
2022-08-04T18:01:23.240Z,4.40
2022-08-04T18:16:27.458Z,5.20
2022-08-04T18:31:31.049Z,5.20
2022-08-04T18:46:39.738Z,5.40
2022-08-04T19:02:12.493Z,6.40
2022-08-04T19:17:53.926Z,6.60
2022-08-04T19:32:48.173Z,6.50
2022-08-04T19:48:17.828Z,6.20
2022-08-04T20:03:20.418Z,8.50
2022-08-04T20:18:35.750Z,8.50
2022-08-04T20:33:40.899Z,8.90
2022-08-04T20:48:53.109Z,8.90
2022-08-04T21:04:28.055Z,8.40
2022-08-04T21:19:32.603Z,8.80
2022-08-04T21:34:41.075Z,8.90
2022-08-04T21:49:56.246Z,9.10
2022-08-04T22:05:00.754Z,8.20
2022-08-04T22:20:04.702Z,7.80
2022-08-04T22:35:44.398Z,7.90
2022-08-04T22:50:31.802Z,7.60
2022-08-04T23:05:36.106Z,7.10
2022-08-04T23:20:39.649Z,7.00
2022-08-04T23:35:42.895Z,6.90
2022-08-04T23:50:46.436Z,6.20
